sensor_id;sensor_type;location;lat;lon;timestamp;P1;durP1;ratioP1;P2;durP2;ratioP2
13797;SDS011;6970;51.340;3.240;2022-12-18T00:01:23;198.63;;;40.07;;
13797;SDS011;6970;51.340;3.240;2022-12-18T00:03:55;160.47;;;38.13;;
13797;SDS011;6970;51.340;3.240;2022-12-18T00:06:23;118.10;;;35.67;;
13797;SDS011;6970;51.340;3.240;2022-12-18T00:08:51;98.40;;;34.67;;
13797;SDS011;6970;51.340;3.240;2022-12-18T00:11:20;108.47;;;35.03;;
13797;SDS011;6970;51.340;3.240;2022-12-18T00:13:49;115.93;;;37.60;;
13797;SDS011;6970;51.340;3.240;2022-12-18T00:16:18;135.23;;;36.53;;
13797;SDS011;6970;51.340;3.240;2022-12-18T00:18:48;226.90;;;39.73;;
13797;SDS011;6970;51.340;3.240;2022-12-18T00:21:16;196.27;;;38.87;;
13797;SDS011;6970;51.340;3.240;2022-12-18T00:23:43;112.70;;;35.27;;
13797;SDS011;6970;51.340;3.240;2022-12-18T00:26:13;120.97;;;34.47;;
13797;SDS011;6970;51.340;3.240;2022-12-18T00:28:42;88.70;;;35.97;;
13797;SDS011;6970;51.340;3.240;2022-12-18T00:31:10;99.60;;;34.90;;
13797;SDS011;6970;51.340;3.240;2022-12-18T00:33:42;113.13;;;33.83;;
13797;SDS011;6970;51.340;3.240;2022-12-18T00:36:14;154.27;;;35.53;;
13797;SDS011;6970;51.340;3.240;2022-12-18T00:38:43;177.67;;;39.27;;
13797;SDS011;6970;51.340;3.240;2022-12-18T00:41:11;168.00;;;36.83;;
13797;SDS011;6970;51.340;3.240;2022-12-18T00:43:40;131.20;;;35.20;;
13797;SDS011;6970;51.340;3.240;2022-12-18T00:46:07;139.17;;;34.03;;
13797;SDS011;6970;51.340;3.240;2022-12-18T00:48:34;150.37;;;33.27;;
13797;SDS011;6970;51.340;3.240;2022-12-18T00:51:01;94.97;;;33.13;;
13797;SDS011;6970;51.340;3.240;2022-12-18T00:53:28;184.53;;;36.27;;
13797;SDS011;6970;51.340;3.240;2022-12-18T00:55:55;129.40;;;34.30;;
13797;SDS011;6970;51.340;3.240;2022-12-18T00:58:22;136.27;;;34.20;;
13797;SDS011;6970;51.340;3.240;2022-12-18T01:00:49;157.93;;;34.83;;
13797;SDS011;6970;51.340;3.240;2022-12-18T01:03:16;102.23;;;32.47;;
13797;SDS011;6970;51.340;3.240;2022-12-18T01:05:43;130.97;;;32.07;;
13797;SDS011;6970;51.340;3.240;2022-12-18T01:08:10;191.73;;;35.30;;
13797;SDS011;6970;51.340;3.240;2022-12-18T01:10:39;181.30;;;36.00;;
13797;SDS011;6970;51.340;3.240;2022-12-18T01:13:07;115.97;;;32.53;;
13797;SDS011;6970;51.340;3.240;2022-12-18T01:15:35;107.13;;;32.33;;
13797;SDS011;6970;51.340;3.240;2022-12-18T01:18:02;86.40;;;31.60;;
13797;SDS011;6970;51.340;3.240;2022-12-18T01:20:28;89.40;;;32.33;;
13797;SDS011;6970;51.340;3.240;2022-12-18T01:22:56;75.47;;;31.47;;
13797;SDS011;6970;51.340;3.240;2022-12-18T01:25:23;76.87;;;31.17;;
13797;SDS011;6970;51.340;3.240;2022-12-18T01:27:51;67.70;;;31.10;;
13797;SDS011;6970;51.340;3.240;2022-12-18T01:30:18;68.63;;;30.73;;
13797;SDS011;6970;51.340;3.240;2022-12-18T01:32:45;67.20;;;33.43;;
13797;SDS011;6970;51.340;3.240;2022-12-18T01:35:12;72.97;;;32.37;;
13797;SDS011;6970;51.340;3.240;2022-12-18T01:37:38;74.43;;;32.97;;
13797;SDS011;6970;51.340;3.240;2022-12-18T01:40:08;69.93;;;32.57;;
13797;SDS011;6970;51.340;3.240;2022-12-18T01:42:35;65.83;;;31.80;;
13797;SDS011;6970;51.340;3.240;2022-12-18T01:47:43;63.33;;;29.63;;
13797;SDS011;6970;51.340;3.240;2022-12-18T01:50:15;65.83;;;31.73;;
13797;SDS011;6970;51.340;3.240;2022-12-18T01:52:45;71.87;;;32.37;;
13797;SDS011;6970;51.340;3.240;2022-12-18T01:55:16;70.77;;;33.03;;
13797;SDS011;6970;51.340;3.240;2022-12-18T01:57:47;66.77;;;29.60;;
13797;SDS011;6970;51.340;3.240;2022-12-18T02:00:17;69.27;;;31.27;;
13797;SDS011;6970;51.340;3.240;2022-12-18T02:02:47;69.43;;;32.57;;
13797;SDS011;6970;51.340;3.240;2022-12-18T02:05:16;64.57;;;31.60;;
13797;SDS011;6970;51.340;3.240;2022-12-18T02:16:37;63.17;;;29.97;;
13797;SDS011;6970;51.340;3.240;2022-12-18T02:27:59;57.93;;;31.30;;
13797;SDS011;6970;51.340;3.240;2022-12-18T02:30:33;58.00;;;30.57;;
13797;SDS011;6970;51.340;3.240;2022-12-18T02:33:04;61.57;;;30.60;;
13797;SDS011;6970;51.340;3.240;2022-12-18T02:35:33;66.73;;;30.83;;
13797;SDS011;6970;51.340;3.240;2022-12-18T02:38:01;53.20;;;28.90;;
13797;SDS011;6970;51.340;3.240;2022-12-18T02:40:30;60.97;;;30.80;;
13797;SDS011;6970;51.340;3.240;2022-12-18T02:43:10;54.70;;;29.27;;
13797;SDS011;6970;51.340;3.240;2022-12-18T02:48:51;57.37;;;31.23;;
13797;SDS011;6970;51.340;3.240;2022-12-18T02:51:26;62.70;;;31.70;;
13797;SDS011;6970;51.340;3.240;2022-12-18T02:54:02;58.57;;;30.87;;
13797;SDS011;6970;51.340;3.240;2022-12-18T02:56:46;55.07;;;29.80;;
13797;SDS011;6970;51.340;3.240;2022-12-18T02:59:41;54.90;;;30.80;;
13797;SDS011;6970;51.340;3.240;2022-12-18T03:02:20;56.30;;;29.73;;
13797;SDS011;6970;51.340;3.240;2022-12-18T03:05:07;58.77;;;30.53;;
13797;SDS011;6970;51.340;3.240;2022-12-18T03:07:58;58.87;;;30.73;;
13797;SDS011;6970;51.340;3.240;2022-12-18T03:10:53;67.60;;;32.23;;
13797;SDS011;6970;51.340;3.240;2022-12-18T03:16:01;66.53;;;33.50;;
13797;SDS011;6970;51.340;3.240;2022-12-18T03:18:35;64.47;;;32.03;;
13797;SDS011;6970;51.340;3.240;2022-12-18T03:21:11;69.43;;;33.97;;
13797;SDS011;6970;51.340;3.240;2022-12-18T03:23:45;73.40;;;34.23;;
13797;SDS011;6970;51.340;3.240;2022-12-18T03:26:16;63.50;;;32.57;;
13797;SDS011;6970;51.340;3.240;2022-12-18T03:28:46;64.80;;;33.23;;
13797;SDS011;6970;51.340;3.240;2022-12-18T03:31:19;69.43;;;34.13;;
13797;SDS011;6970;51.340;3.240;2022-12-18T03:36:21;66.57;;;33.57;;
13797;SDS011;6970;51.340;3.240;2022-12-18T03:38:51;67.07;;;32.73;;
13797;SDS011;6970;51.340;3.240;2022-12-18T03:41:19;61.07;;;31.40;;
13797;SDS011;6970;51.340;3.240;2022-12-18T03:46:41;55.27;;;30.20;;
13797;SDS011;6970;51.340;3.240;2022-12-18T03:49:24;57.57;;;29.37;;
13797;SDS011;6970;51.340;3.240;2022-12-18T03:52:12;67.20;;;32.87;;
13797;SDS011;6970;51.340;3.240;2022-12-18T03:55:13;61.03;;;30.50;;
13797;SDS011;6970;51.340;3.240;2022-12-18T03:57:41;54.00;;;29.87;;
13797;SDS011;6970;51.340;3.240;2022-12-18T04:00:11;52.07;;;28.30;;
13797;SDS011;6970;51.340;3.240;2022-12-18T04:02:44;53.90;;;27.60;;
13797;SDS011;6970;51.340;3.240;2022-12-18T04:05:15;57.13;;;29.00;;
13797;SDS011;6970;51.340;3.240;2022-12-18T04:07:44;56.53;;;27.13;;
13797;SDS011;6970;51.340;3.240;2022-12-18T04:10:14;57.97;;;27.90;;
13797;SDS011;6970;51.340;3.240;2022-12-18T04:12:44;52.17;;;27.70;;
13797;SDS011;6970;51.340;3.240;2022-12-18T04:15:12;48.80;;;26.30;;
13797;SDS011;6970;51.340;3.240;2022-12-18T04:17:48;60.10;;;28.87;;
13797;SDS011;6970;51.340;3.240;2022-12-18T04:20:16;56.67;;;27.60;;
13797;SDS011;6970;51.340;3.240;2022-12-18T04:22:43;56.53;;;28.53;;
13797;SDS011;6970;51.340;3.240;2022-12-18T04:25:11;52.17;;;26.47;;
13797;SDS011;6970;51.340;3.240;2022-12-18T04:27:38;51.77;;;26.10;;
13797;SDS011;6970;51.340;3.240;2022-12-18T04:30:06;55.83;;;27.47;;
13797;SDS011;6970;51.340;3.240;2022-12-18T04:32:34;51.87;;;26.97;;
13797;SDS011;6970;51.340;3.240;2022-12-18T04:35:02;48.80;;;25.53;;
13797;SDS011;6970;51.340;3.240;2022-12-18T04:37:30;53.30;;;25.07;;
13797;SDS011;6970;51.340;3.240;2022-12-18T04:39:57;48.53;;;24.63;;
13797;SDS011;6970;51.340;3.240;2022-12-18T04:42:24;54.07;;;25.17;;
13797;SDS011;6970;51.340;3.240;2022-12-18T04:44:51;51.13;;;24.73;;
13797;SDS011;6970;51.340;3.240;2022-12-18T04:47:18;47.97;;;26.23;;
13797;SDS011;6970;51.340;3.240;2022-12-18T04:49:45;50.77;;;25.40;;
13797;SDS011;6970;51.340;3.240;2022-12-18T04:52:12;48.60;;;25.73;;
13797;SDS011;6970;51.340;3.240;2022-12-18T04:54:38;53.07;;;25.50;;
13797;SDS011;6970;51.340;3.240;2022-12-18T04:57:05;47.77;;;24.23;;
13797;SDS011;6970;51.340;3.240;2022-12-18T04:59:32;44.80;;;24.67;;
13797;SDS011;6970;51.340;3.240;2022-12-18T05:01:59;51.07;;;24.70;;
13797;SDS011;6970;51.340;3.240;2022-12-18T05:04:26;49.80;;;24.67;;
13797;SDS011;6970;51.340;3.240;2022-12-18T05:06:53;49.57;;;23.30;;
13797;SDS011;6970;51.340;3.240;2022-12-18T05:09:20;49.87;;;24.23;;
13797;SDS011;6970;51.340;3.240;2022-12-18T05:11:47;42.90;;;23.60;;
13797;SDS011;6970;51.340;3.240;2022-12-18T05:14:14;44.23;;;24.80;;
13797;SDS011;6970;51.340;3.240;2022-12-18T05:16:41;48.03;;;24.07;;
13797;SDS011;6970;51.340;3.240;2022-12-18T05:19:09;46.73;;;23.40;;
13797;SDS011;6970;51.340;3.240;2022-12-18T05:21:36;45.40;;;23.07;;
13797;SDS011;6970;51.340;3.240;2022-12-18T05:24:03;43.70;;;23.33;;
13797;SDS011;6970;51.340;3.240;2022-12-18T05:26:31;44.17;;;23.40;;
13797;SDS011;6970;51.340;3.240;2022-12-18T05:28:58;46.80;;;22.80;;
13797;SDS011;6970;51.340;3.240;2022-12-18T05:31:25;42.33;;;21.07;;
13797;SDS011;6970;51.340;3.240;2022-12-18T05:33:52;46.30;;;22.93;;
13797;SDS011;6970;51.340;3.240;2022-12-18T05:36:20;43.17;;;24.33;;
13797;SDS011;6970;51.340;3.240;2022-12-18T05:38:48;43.73;;;22.10;;
13797;SDS011;6970;51.340;3.240;2022-12-18T05:41:15;44.73;;;21.83;;
13797;SDS011;6970;51.340;3.240;2022-12-18T05:43:42;46.03;;;23.00;;
13797;SDS011;6970;51.340;3.240;2022-12-18T05:46:14;44.20;;;22.17;;
13797;SDS011;6970;51.340;3.240;2022-12-18T05:48:44;41.20;;;22.23;;
13797;SDS011;6970;51.340;3.240;2022-12-18T05:51:12;43.00;;;22.30;;
13797;SDS011;6970;51.340;3.240;2022-12-18T05:53:41;44.40;;;22.97;;
13797;SDS011;6970;51.340;3.240;2022-12-18T05:56:13;47.33;;;22.97;;
13797;SDS011;6970;51.340;3.240;2022-12-18T05:58:41;45.37;;;21.47;;
13797;SDS011;6970;51.340;3.240;2022-12-18T06:01:20;43.83;;;21.40;;
13797;SDS011;6970;51.340;3.240;2022-12-18T06:03:50;38.23;;;20.80;;
13797;SDS011;6970;51.340;3.240;2022-12-18T06:08:46;42.07;;;21.07;;
13797;SDS011;6970;51.340;3.240;2022-12-18T06:11:13;41.83;;;21.63;;
13797;SDS011;6970;51.340;3.240;2022-12-18T06:13:43;43.70;;;21.47;;
13797;SDS011;6970;51.340;3.240;2022-12-18T06:16:10;45.00;;;21.60;;
13797;SDS011;6970;51.340;3.240;2022-12-18T06:18:37;47.07;;;21.87;;
13797;SDS011;6970;51.340;3.240;2022-12-18T06:21:04;38.37;;;21.37;;
13797;SDS011;6970;51.340;3.240;2022-12-18T06:23:31;41.37;;;22.10;;
13797;SDS011;6970;51.340;3.240;2022-12-18T06:25:58;36.43;;;20.20;;
13797;SDS011;6970;51.340;3.240;2022-12-18T06:28:25;40.10;;;21.20;;
13797;SDS011;6970;51.340;3.240;2022-12-18T06:30:51;38.30;;;20.13;;
13797;SDS011;6970;51.340;3.240;2022-12-18T06:33:20;40.77;;;21.10;;
13797;SDS011;6970;51.340;3.240;2022-12-18T06:35:47;40.73;;;19.70;;
13797;SDS011;6970;51.340;3.240;2022-12-18T06:38:14;36.80;;;19.97;;
13797;SDS011;6970;51.340;3.240;2022-12-18T06:40:41;37.57;;;20.10;;
13797;SDS011;6970;51.340;3.240;2022-12-18T06:43:08;38.53;;;20.10;;
13797;SDS011;6970;51.340;3.240;2022-12-18T06:45:34;33.67;;;19.07;;
13797;SDS011;6970;51.340;3.240;2022-12-18T06:48:01;32.53;;;18.70;;
13797;SDS011;6970;51.340;3.240;2022-12-18T06:50:28;40.73;;;18.63;;
13797;SDS011;6970;51.340;3.240;2022-12-18T06:52:56;35.70;;;19.07;;
13797;SDS011;6970;51.340;3.240;2022-12-18T06:55:23;37.80;;;18.23;;
13797;SDS011;6970;51.340;3.240;2022-12-18T06:57:50;37.50;;;18.60;;
13797;SDS011;6970;51.340;3.240;2022-12-18T07:00:17;33.77;;;17.53;;
13797;SDS011;6970;51.340;3.240;2022-12-18T07:02:44;29.80;;;17.67;;
13797;SDS011;6970;51.340;3.240;2022-12-18T07:05:11;37.33;;;18.50;;
13797;SDS011;6970;51.340;3.240;2022-12-18T07:07:38;28.33;;;16.77;;
13797;SDS011;6970;51.340;3.240;2022-12-18T07:10:06;28.63;;;16.47;;
13797;SDS011;6970;51.340;3.240;2022-12-18T07:12:33;29.80;;;16.73;;
13797;SDS011;6970;51.340;3.240;2022-12-18T07:15:02;34.53;;;17.00;;
13797;SDS011;6970;51.340;3.240;2022-12-18T07:17:29;27.30;;;15.70;;
13797;SDS011;6970;51.340;3.240;2022-12-18T07:19:58;28.60;;;16.13;;
13797;SDS011;6970;51.340;3.240;2022-12-18T07:22:25;27.53;;;15.20;;
13797;SDS011;6970;51.340;3.240;2022-12-18T07:24:52;21.03;;;14.10;;
13797;SDS011;6970;51.340;3.240;2022-12-18T07:27:19;21.00;;;13.77;;
13797;SDS011;6970;51.340;3.240;2022-12-18T07:29:46;25.07;;;13.93;;
13797;SDS011;6970;51.340;3.240;2022-12-18T07:32:19;24.77;;;14.70;;
13797;SDS011;6970;51.340;3.240;2022-12-18T07:34:49;21.73;;;14.03;;
13797;SDS011;6970;51.340;3.240;2022-12-18T07:37:16;25.37;;;14.17;;
13797;SDS011;6970;51.340;3.240;2022-12-18T07:39:43;23.60;;;13.83;;
13797;SDS011;6970;51.340;3.240;2022-12-18T07:42:12;23.57;;;13.40;;
13797;SDS011;6970;51.340;3.240;2022-12-18T07:45:00;25.37;;;14.27;;
13797;SDS011;6970;51.340;3.240;2022-12-18T07:47:28;24.87;;;13.53;;
13797;SDS011;6970;51.340;3.240;2022-12-18T07:49:56;23.67;;;13.83;;
13797;SDS011;6970;51.340;3.240;2022-12-18T07:52:24;25.20;;;13.97;;
13797;SDS011;6970;51.340;3.240;2022-12-18T07:54:51;21.43;;;14.07;;
13797;SDS011;6970;51.340;3.240;2022-12-18T07:57:18;23.77;;;13.40;;
13797;SDS011;6970;51.340;3.240;2022-12-18T08:00:06;25.03;;;13.53;;
13797;SDS011;6970;51.340;3.240;2022-12-18T08:02:37;23.33;;;14.17;;
13797;SDS011;6970;51.340;3.240;2022-12-18T08:05:04;23.57;;;12.93;;
13797;SDS011;6970;51.340;3.240;2022-12-18T08:07:35;25.07;;;13.43;;
13797;SDS011;6970;51.340;3.240;2022-12-18T08:10:03;19.23;;;13.53;;
13797;SDS011;6970;51.340;3.240;2022-12-18T08:12:33;19.67;;;14.23;;
13797;SDS011;6970;51.340;3.240;2022-12-18T08:15:02;22.03;;;13.70;;
13797;SDS011;6970;51.340;3.240;2022-12-18T08:17:32;22.47;;;12.50;;
13797;SDS011;6970;51.340;3.240;2022-12-18T08:19:59;17.40;;;12.63;;
13797;SDS011;6970;51.340;3.240;2022-12-18T08:22:29;18.70;;;12.90;;
13797;SDS011;6970;51.340;3.240;2022-12-18T08:24:57;20.10;;;12.70;;
13797;SDS011;6970;51.340;3.240;2022-12-18T08:29:56;16.33;;;10.37;;
13797;SDS011;6970;51.340;3.240;2022-12-18T08:32:25;19.00;;;12.03;;
13797;SDS011;6970;51.340;3.240;2022-12-18T08:34:56;14.63;;;10.17;;
13797;SDS011;6970;51.340;3.240;2022-12-18T08:39:56;21.17;;;12.13;;
13797;SDS011;6970;51.340;3.240;2022-12-18T08:42:26;16.73;;;11.67;;
13797;SDS011;6970;51.340;3.240;2022-12-18T08:45:14;21.30;;;12.17;;
13797;SDS011;6970;51.340;3.240;2022-12-18T08:47:41;19.17;;;12.23;;
13797;SDS011;6970;51.340;3.240;2022-12-18T08:50:09;16.30;;;12.77;;
13797;SDS011;6970;51.340;3.240;2022-12-18T08:52:40;16.47;;;11.50;;
13797;SDS011;6970;51.340;3.240;2022-12-18T08:55:13;14.90;;;11.23;;
13797;SDS011;6970;51.340;3.240;2022-12-18T08:57:49;18.33;;;11.87;;
13797;SDS011;6970;51.340;3.240;2022-12-18T09:00:22;18.53;;;11.10;;
13797;SDS011;6970;51.340;3.240;2022-12-18T09:02:49;19.67;;;11.50;;
13797;SDS011;6970;51.340;3.240;2022-12-18T09:05:16;18.17;;;12.23;;
13797;SDS011;6970;51.340;3.240;2022-12-18T09:10:14;16.60;;;11.37;;
13797;SDS011;6970;51.340;3.240;2022-12-18T09:12:44;17.90;;;11.37;;
13797;SDS011;6970;51.340;3.240;2022-12-18T09:17:43;20.10;;;12.23;;
13797;SDS011;6970;51.340;3.240;2022-12-18T09:20:10;16.17;;;10.67;;
13797;SDS011;6970;51.340;3.240;2022-12-18T09:22:40;17.30;;;11.67;;
13797;SDS011;6970;51.340;3.240;2022-12-18T09:25:07;16.93;;;11.80;;
13797;SDS011;6970;51.340;3.240;2022-12-18T09:27:34;17.57;;;11.50;;
13797;SDS011;6970;51.340;3.240;2022-12-18T09:30:01;17.57;;;12.10;;
13797;SDS011;6970;51.340;3.240;2022-12-18T09:35:03;20.67;;;12.40;;
13797;SDS011;6970;51.340;3.240;2022-12-18T09:40:01;19.37;;;11.43;;
13797;SDS011;6970;51.340;3.240;2022-12-18T09:42:29;17.37;;;11.70;;
13797;SDS011;6970;51.340;3.240;2022-12-18T09:47:28;17.27;;;12.27;;
13797;SDS011;6970;51.340;3.240;2022-12-18T09:52:43;18.37;;;11.80;;
13797;SDS011;6970;51.340;3.240;2022-12-18T09:58:14;16.53;;;11.33;;
13797;SDS011;6970;51.340;3.240;2022-12-18T10:03:15;17.67;;;11.77;;
13797;SDS011;6970;51.340;3.240;2022-12-18T10:11:32;17.07;;;11.47;;
13797;SDS011;6970;51.340;3.240;2022-12-18T10:14:42;18.87;;;12.37;;
13797;SDS011;6970;51.340;3.240;2022-12-18T10:26:04;17.67;;;11.43;;
13797;SDS011;6970;51.340;3.240;2022-12-18T10:28:38;16.77;;;11.17;;
13797;SDS011;6970;51.340;3.240;2022-12-18T10:31:18;14.43;;;10.40;;
13797;SDS011;6970;51.340;3.240;2022-12-18T10:33:51;15.07;;;10.87;;
13797;SDS011;6970;51.340;3.240;2022-12-18T10:36:22;16.30;;;10.80;;
13797;SDS011;6970;51.340;3.240;2022-12-18T10:38:51;13.87;;;10.53;;
13797;SDS011;6970;51.340;3.240;2022-12-18T10:43:51;17.20;;;12.03;;
13797;SDS011;6970;51.340;3.240;2022-12-18T10:46:47;17.10;;;10.97;;
13797;SDS011;6970;51.340;3.240;2022-12-18T10:49:42;13.70;;;10.57;;
13797;SDS011;6970;51.340;3.240;2022-12-18T10:52:23;16.60;;;11.20;;
13797;SDS011;6970;51.340;3.240;2022-12-18T10:54:54;16.60;;;11.20;;
13797;SDS011;6970;51.340;3.240;2022-12-18T10:57:36;16.50;;;11.30;;
13797;SDS011;6970;51.340;3.240;2022-12-18T11:02:55;19.90;;;12.13;;
13797;SDS011;6970;51.340;3.240;2022-12-18T11:08:03;16.80;;;11.10;;
13797;SDS011;6970;51.340;3.240;2022-12-18T11:13:18;15.20;;;11.03;;
13797;SDS011;6970;51.340;3.240;2022-12-18T11:15:50;13.77;;;10.20;;
13797;SDS011;6970;51.340;3.240;2022-12-18T11:18:28;14.90;;;11.57;;
13797;SDS011;6970;51.340;3.240;2022-12-18T11:21:13;14.07;;;11.73;;
13797;SDS011;6970;51.340;3.240;2022-12-18T11:23:50;18.47;;;12.33;;
13797;SDS011;6970;51.340;3.240;2022-12-18T11:29:22;19.17;;;12.77;;
13797;SDS011;6970;51.340;3.240;2022-12-18T11:32:12;19.87;;;12.33;;
13797;SDS011;6970;51.340;3.240;2022-12-18T11:41:06;21.17;;;13.03;;
13797;SDS011;6970;51.340;3.240;2022-12-18T11:46:57;19.13;;;12.60;;
13797;SDS011;6970;51.340;3.240;2022-12-18T11:49:35;21.80;;;13.40;;
13797;SDS011;6970;51.340;3.240;2022-12-18T11:54:42;17.00;;;12.00;;
13797;SDS011;6970;51.340;3.240;2022-12-18T12:11:28;20.30;;;14.37;;
13797;SDS011;6970;51.340;3.240;2022-12-18T12:17:03;19.13;;;14.53;;
13797;SDS011;6970;51.340;3.240;2022-12-18T12:31:57;18.33;;;13.87;;
13797;SDS011;6970;51.340;3.240;2022-12-18T12:43:38;23.70;;;15.73;;
13797;SDS011;6970;51.340;3.240;2022-12-18T12:46:17;26.40;;;16.97;;
13797;SDS011;6970;51.340;3.240;2022-12-18T12:49:14;25.63;;;15.57;;
13797;SDS011;6970;51.340;3.240;2022-12-18T12:51:45;26.40;;;16.70;;
13797;SDS011;6970;51.340;3.240;2022-12-18T12:54:19;27.93;;;16.63;;
13797;SDS011;6970;51.340;3.240;2022-12-18T13:02:56;30.27;;;16.93;;
13797;SDS011;6970;51.340;3.240;2022-12-18T13:08:30;28.57;;;17.03;;
13797;SDS011;6970;51.340;3.240;2022-12-18T13:11:00;29.90;;;17.53;;
13797;SDS011;6970;51.340;3.240;2022-12-18T13:16:28;32.73;;;18.57;;
13797;SDS011;6970;51.340;3.240;2022-12-18T13:18:57;29.47;;;17.87;;
13797;SDS011;6970;51.340;3.240;2022-12-18T13:38:44;34.57;;;20.30;;
13797;SDS011;6970;51.340;3.240;2022-12-18T13:43:55;32.63;;;19.47;;
13797;SDS011;6970;51.340;3.240;2022-12-18T13:46:45;32.30;;;19.67;;
13797;SDS011;6970;51.340;3.240;2022-12-18T13:51:57;31.83;;;19.43;;
13797;SDS011;6970;51.340;3.240;2022-12-18T13:54:28;32.67;;;20.17;;
13797;SDS011;6970;51.340;3.240;2022-12-18T13:56:57;36.87;;;21.00;;
13797;SDS011;6970;51.340;3.240;2022-12-18T13:59:25;33.67;;;19.50;;
13797;SDS011;6970;51.340;3.240;2022-12-18T14:02:14;32.13;;;19.47;;
13797;SDS011;6970;51.340;3.240;2022-12-18T14:04:49;32.00;;;19.90;;
13797;SDS011;6970;51.340;3.240;2022-12-18T14:07:28;30.23;;;19.90;;
13797;SDS011;6970;51.340;3.240;2022-12-18T14:10:11;39.17;;;20.80;;
13797;SDS011;6970;51.340;3.240;2022-12-18T14:13:05;36.63;;;20.93;;
13797;SDS011;6970;51.340;3.240;2022-12-18T14:15:42;34.90;;;20.27;;
13797;SDS011;6970;51.340;3.240;2022-12-18T14:21:02;34.57;;;21.03;;
13797;SDS011;6970;51.340;3.240;2022-12-18T14:23:38;36.90;;;19.87;;
13797;SDS011;6970;51.340;3.240;2022-12-18T14:31:30;36.63;;;20.97;;
13797;SDS011;6970;51.340;3.240;2022-12-18T14:33:59;38.83;;;20.30;;
13797;SDS011;6970;51.340;3.240;2022-12-18T14:36:27;37.60;;;20.83;;
13797;SDS011;6970;51.340;3.240;2022-12-18T14:38:58;37.43;;;21.00;;
13797;SDS011;6970;51.340;3.240;2022-12-18T14:41:34;38.57;;;20.57;;
13797;SDS011;6970;51.340;3.240;2022-12-18T14:44:10;37.20;;;20.73;;
13797;SDS011;6970;51.340;3.240;2022-12-18T14:54:36;37.40;;;19.30;;
13797;SDS011;6970;51.340;3.240;2022-12-18T15:00:06;35.77;;;19.63;;
13797;SDS011;6970;51.340;3.240;2022-12-18T15:02:44;35.33;;;20.47;;
13797;SDS011;6970;51.340;3.240;2022-12-18T15:08:00;36.53;;;20.50;;
13797;SDS011;6970;51.340;3.240;2022-12-18T15:10:30;36.00;;;19.70;;
13797;SDS011;6970;51.340;3.240;2022-12-18T15:18:15;34.03;;;19.03;;
13797;SDS011;6970;51.340;3.240;2022-12-18T15:21:07;35.07;;;21.40;;
13797;SDS011;6970;51.340;3.240;2022-12-18T15:23:52;37.27;;;20.17;;
13797;SDS011;6970;51.340;3.240;2022-12-18T15:26:22;36.53;;;19.97;;
13797;SDS011;6970;51.340;3.240;2022-12-18T15:28:53;34.13;;;20.47;;
13797;SDS011;6970;51.340;3.240;2022-12-18T15:34:04;33.53;;;19.37;;
13797;SDS011;6970;51.340;3.240;2022-12-18T15:36:38;37.63;;;19.93;;
13797;SDS011;6970;51.340;3.240;2022-12-18T15:41:41;33.80;;;18.73;;
13797;SDS011;6970;51.340;3.240;2022-12-18T15:44:28;32.90;;;19.07;;
13797;SDS011;6970;51.340;3.240;2022-12-18T15:46:55;38.63;;;19.80;;
13797;SDS011;6970;51.340;3.240;2022-12-18T15:49:23;36.40;;;19.87;;
13797;SDS011;6970;51.340;3.240;2022-12-18T15:51:56;32.07;;;19.60;;
13797;SDS011;6970;51.340;3.240;2022-12-18T15:54:25;38.50;;;19.10;;
13797;SDS011;6970;51.340;3.240;2022-12-18T15:57:11;36.30;;;18.63;;
13797;SDS011;6970;51.340;3.240;2022-12-18T15:59:54;38.77;;;19.63;;
13797;SDS011;6970;51.340;3.240;2022-12-18T16:02:24;37.70;;;20.30;;
13797;SDS011;6970;51.340;3.240;2022-12-18T16:04:53;38.40;;;20.80;;
13797;SDS011;6970;51.340;3.240;2022-12-18T16:07:20;37.23;;;20.63;;
13797;SDS011;6970;51.340;3.240;2022-12-18T16:09:50;33.73;;;18.80;;
13797;SDS011;6970;51.340;3.240;2022-12-18T16:12:18;39.33;;;20.73;;
13797;SDS011;6970;51.340;3.240;2022-12-18T16:14:48;39.80;;;19.97;;
13797;SDS011;6970;51.340;3.240;2022-12-18T16:17:18;33.30;;;18.97;;
13797;SDS011;6970;51.340;3.240;2022-12-18T16:19:47;41.37;;;20.37;;
13797;SDS011;6970;51.340;3.240;2022-12-18T16:22:20;35.80;;;19.50;;
13797;SDS011;6970;51.340;3.240;2022-12-18T16:24:49;34.80;;;18.23;;
13797;SDS011;6970;51.340;3.240;2022-12-18T16:27:20;35.03;;;18.67;;
13797;SDS011;6970;51.340;3.240;2022-12-18T16:29:51;37.83;;;19.37;;
13797;SDS011;6970;51.340;3.240;2022-12-18T16:32:21;38.27;;;20.13;;
13797;SDS011;6970;51.340;3.240;2022-12-18T16:34:52;37.50;;;19.20;;
13797;SDS011;6970;51.340;3.240;2022-12-18T16:39:55;37.13;;;20.53;;
13797;SDS011;6970;51.340;3.240;2022-12-18T16:42:22;39.70;;;19.57;;
13797;SDS011;6970;51.340;3.240;2022-12-18T16:44:51;43.50;;;20.57;;
13797;SDS011;6970;51.340;3.240;2022-12-18T16:47:19;39.10;;;20.57;;
13797;SDS011;6970;51.340;3.240;2022-12-18T16:49:52;34.97;;;18.60;;
13797;SDS011;6970;51.340;3.240;2022-12-18T16:52:21;33.80;;;19.17;;
13797;SDS011;6970;51.340;3.240;2022-12-18T16:57:19;37.70;;;19.47;;
13797;SDS011;6970;51.340;3.240;2022-12-18T16:59:51;45.27;;;21.43;;
13797;SDS011;6970;51.340;3.240;2022-12-18T17:02:20;38.73;;;20.70;;
13797;SDS011;6970;51.340;3.240;2022-12-18T17:04:51;35.10;;;20.53;;
13797;SDS011;6970;51.340;3.240;2022-12-18T17:07:21;39.37;;;20.50;;
13797;SDS011;6970;51.340;3.240;2022-12-18T17:09:50;42.33;;;20.87;;
13797;SDS011;6970;51.340;3.240;2022-12-18T17:14:49;35.53;;;19.33;;
13797;SDS011;6970;51.340;3.240;2022-12-18T17:19:49;42.03;;;21.10;;
13797;SDS011;6970;51.340;3.240;2022-12-18T17:22:17;45.03;;;21.80;;
13797;SDS011;6970;51.340;3.240;2022-12-18T17:24:47;41.13;;;19.67;;
13797;SDS011;6970;51.340;3.240;2022-12-18T17:27:15;45.13;;;20.90;;
13797;SDS011;6970;51.340;3.240;2022-12-18T17:32:14;40.70;;;21.30;;
13797;SDS011;6970;51.340;3.240;2022-12-18T17:34:44;35.33;;;19.13;;
13797;SDS011;6970;51.340;3.240;2022-12-18T17:37:13;40.20;;;21.33;;
13797;SDS011;6970;51.340;3.240;2022-12-18T17:39:41;40.87;;;20.77;;
13797;SDS011;6970;51.340;3.240;2022-12-18T17:44:44;39.33;;;20.23;;
13797;SDS011;6970;51.340;3.240;2022-12-18T17:47:17;42.27;;;21.03;;
13797;SDS011;6970;51.340;3.240;2022-12-18T17:49:45;41.83;;;21.00;;
13797;SDS011;6970;51.340;3.240;2022-12-18T17:52:13;40.70;;;19.60;;
13797;SDS011;6970;51.340;3.240;2022-12-18T17:54:46;35.77;;;20.27;;
13797;SDS011;6970;51.340;3.240;2022-12-18T17:59:52;41.43;;;20.73;;
13797;SDS011;6970;51.340;3.240;2022-12-18T18:02:21;37.73;;;20.70;;
13797;SDS011;6970;51.340;3.240;2022-12-18T18:07:18;41.73;;;20.90;;
13797;SDS011;6970;51.340;3.240;2022-12-18T18:09:45;38.63;;;21.00;;
13797;SDS011;6970;51.340;3.240;2022-12-18T18:12:12;41.07;;;20.07;;
13797;SDS011;6970;51.340;3.240;2022-12-18T18:14:59;35.77;;;18.90;;
13797;SDS011;6970;51.340;3.240;2022-12-18T18:17:32;40.27;;;19.80;;
13797;SDS011;6970;51.340;3.240;2022-12-18T18:19:59;37.93;;;20.43;;
13797;SDS011;6970;51.340;3.240;2022-12-18T18:22:28;42.10;;;21.10;;
13797;SDS011;6970;51.340;3.240;2022-12-18T18:24:55;37.17;;;20.13;;
13797;SDS011;6970;51.340;3.240;2022-12-18T18:27:25;39.87;;;20.70;;
13797;SDS011;6970;51.340;3.240;2022-12-18T18:29:54;40.20;;;20.17;;
13797;SDS011;6970;51.340;3.240;2022-12-18T18:32:24;43.07;;;20.57;;
13797;SDS011;6970;51.340;3.240;2022-12-18T18:34:52;39.70;;;20.20;;
13797;SDS011;6970;51.340;3.240;2022-12-18T18:37:21;36.73;;;19.60;;
13797;SDS011;6970;51.340;3.240;2022-12-18T18:39:48;42.80;;;19.93;;
13797;SDS011;6970;51.340;3.240;2022-12-18T18:42:15;43.63;;;21.23;;